sensor_id;sensor_type;location;lat;lon;timestamp;P1;P2;P0
67802;PMS5003;72185;51.378;-1.342;2023-12-20T00:01:50;1;1;
67802;PMS5003;72185;51.378;-1.342;2023-12-20T00:04:16;1;1;
67802;PMS5003;72185;51.378;-1.342;2023-12-20T00:06:41;3;3;
67802;PMS5003;72185;51.378;-1.342;2023-12-20T00:09:07;1;1;
67802;PMS5003;72185;51.378;-1.342;2023-12-20T00:11:32;2;2;
67802;PMS5003;72185;51.378;-1.342;2023-12-20T00:13:58;2;1;
67802;PMS5003;72185;51.378;-1.342;2023-12-20T00:16:24;3;2;
67802;PMS5003;72185;51.378;-1.342;2023-12-20T00:18:49;2;2;
67802;PMS5003;72185;51.378;-1.342;2023-12-20T00:21:15;1;1;
67802;PMS5003;72185;51.378;-1.342;2023-12-20T00:23:40;1;1;
67802;PMS5003;72185;51.378;-1.342;2023-12-20T00:26:06;2;1;
67802;PMS5003;72185;51.378;-1.342;2023-12-20T00:28:31;1;1;
67802;PMS5003;72185;51.378;-1.342;2023-12-20T00:30:57;1;1;
67802;PMS5003;72185;51.378;-1.342;2023-12-20T00:33:22;2;2;
67802;PMS5003;72185;51.378;-1.342;2023-12-20T00:35:48;1;1;
67802;PMS5003;72185;51.378;-1.342;2023-12-20T00:38:14;2;2;
67802;PMS5003;72185;51.378;-1.342;2023-12-20T00:40:39;2;2;
67802;PMS5003;72185;51.378;-1.342;2023-12-20T00:43:05;2;2;
67802;PMS5003;72185;51.378;-1.342;2023-12-20T00:45:30;2;2;
67802;PMS5003;72185;51.378;-1.342;2023-12-20T00:47:56;2;1;
67802;PMS5003;72185;51.378;-1.342;2023-12-20T00:50:22;1;1;
67802;PMS5003;72185;51.378;-1.342;2023-12-20T00:52:47;1;1;
67802;PMS5003;72185;51.378;-1.342;2023-12-20T00:55:13;2;2;
67802;PMS5003;72185;51.378;-1.342;2023-12-20T00:57:38;2;1;
67802;PMS5003;72185;51.378;-1.342;2023-12-20T01:00:04;2;2;
67802;PMS5003;72185;51.378;-1.342;2023-12-20T01:02:29;2;1;
67802;PMS5003;72185;51.378;-1.342;2023-12-20T01:04:55;1;0;
67802;PMS5003;72185;51.378;-1.342;2023-12-20T01:07:21;2;1;
67802;PMS5003;72185;51.378;-1.342;2023-12-20T01:09:46;1;1;
67802;PMS5003;72185;51.378;-1.342;2023-12-20T01:12:12;1;1;
67802;PMS5003;72185;51.378;-1.342;2023-12-20T01:14:37;2;2;
67802;PMS5003;72185;51.378;-1.342;2023-12-20T01:17:03;1;1;
67802;PMS5003;72185;51.378;-1.342;2023-12-20T01:19:28;2;1;
67802;PMS5003;72185;51.378;-1.342;2023-12-20T01:21:54;1;1;
67802;PMS5003;72185;51.378;-1.342;2023-12-20T01:24:20;1;1;
67802;PMS5003;72185;51.378;-1.342;2023-12-20T01:26:45;1;1;
67802;PMS5003;72185;51.378;-1.342;2023-12-20T01:29:11;2;1;
67802;PMS5003;72185;51.378;-1.342;2023-12-20T01:31:36;2;2;
67802;PMS5003;72185;51.378;-1.342;2023-12-20T01:34:02;1;1;
67802;PMS5003;72185;51.378;-1.342;2023-12-20T01:36:27;1;1;
67802;PMS5003;72185;51.378;-1.342;2023-12-20T01:38:53;1;1;
67802;PMS5003;72185;51.378;-1.342;2023-12-20T01:41:19;3;2;
67802;PMS5003;72185;51.378;-1.342;2023-12-20T01:43:44;1;1;
67802;PMS5003;72185;51.378;-1.342;2023-12-20T01:46:10;1;1;
67802;PMS5003;72185;51.378;-1.342;2023-12-20T01:48:35;2;1;
67802;PMS5003;72185;51.378;-1.342;2023-12-20T01:51:01;1;1;
67802;PMS5003;72185;51.378;-1.342;2023-12-20T01:53:27;2;2;
67802;PMS5003;72185;51.378;-1.342;2023-12-20T01:55:52;2;1;
67802;PMS5003;72185;51.378;-1.342;2023-12-20T01:58:18;1;1;
67802;PMS5003;72185;51.378;-1.342;2023-12-20T02:00:43;2;2;
67802;PMS5003;72185;51.378;-1.342;2023-12-20T02:03:09;3;1;
67802;PMS5003;72185;51.378;-1.342;2023-12-20T02:05:35;1;1;
67802;PMS5003;72185;51.378;-1.342;2023-12-20T02:08:00;1;1;
67802;PMS5003;72185;51.378;-1.342;2023-12-20T02:10:26;2;2;
67802;PMS5003;72185;51.378;-1.342;2023-12-20T02:12:51;1;1;
67802;PMS5003;72185;51.378;-1.342;2023-12-20T02:15:17;1;1;
67802;PMS5003;72185;51.378;-1.342;2023-12-20T02:17:43;0;0;
67802;PMS5003;72185;51.378;-1.342;2023-12-20T02:20:08;0;0;
67802;PMS5003;72185;51.378;-1.342;2023-12-20T02:22:34;1;1;
67802;PMS5003;72185;51.378;-1.342;2023-12-20T02:24:59;1;1;
67802;PMS5003;72185;51.378;-1.342;2023-12-20T02:27:25;1;1;
67802;PMS5003;72185;51.378;-1.342;2023-12-20T02:29:51;0;0;
67802;PMS5003;72185;51.378;-1.342;2023-12-20T02:32:16;1;1;
67802;PMS5003;72185;51.378;-1.342;2023-12-20T02:34:42;1;1;
67802;PMS5003;72185;51.378;-1.342;2023-12-20T02:37:07;1;1;
67802;PMS5003;72185;51.378;-1.342;2023-12-20T02:39:33;1;1;
67802;PMS5003;72185;51.378;-1.342;2023-12-20T02:41:59;3;2;
67802;PMS5003;72185;51.378;-1.342;2023-12-20T02:44:24;1;1;
67802;PMS5003;72185;51.378;-1.342;2023-12-20T02:46:50;3;2;
67802;PMS5003;72185;51.378;-1.342;2023-12-20T02:49:15;2;2;
67802;PMS5003;72185;51.378;-1.342;2023-12-20T02:51:41;1;1;
67802;PMS5003;72185;51.378;-1.342;2023-12-20T02:54:07;1;1;
67802;PMS5003;72185;51.378;-1.342;2023-12-20T02:56:32;1;1;
67802;PMS5003;72185;51.378;-1.342;2023-12-20T02:58:58;2;2;
67802;PMS5003;72185;51.378;-1.342;2023-12-20T03:01:23;1;1;
67802;PMS5003;72185;51.378;-1.342;2023-12-20T03:03:49;1;1;
67802;PMS5003;72185;51.378;-1.342;2023-12-20T03:06:15;1;1;
67802;PMS5003;72185;51.378;-1.342;2023-12-20T03:08:40;2;2;
67802;PMS5003;72185;51.378;-1.342;2023-12-20T03:11:06;1;1;
67802;PMS5003;72185;51.378;-1.342;2023-12-20T03:13:31;1;1;
67802;PMS5003;72185;51.378;-1.342;2023-12-20T03:15:57;1;1;
67802;PMS5003;72185;51.378;-1.342;2023-12-20T03:18:23;2;2;
67802;PMS5003;72185;51.378;-1.342;2023-12-20T03:20:48;1;1;
67802;PMS5003;72185;51.378;-1.342;2023-12-20T03:23:14;1;1;
67802;PMS5003;72185;51.378;-1.342;2023-12-20T03:25:39;1;1;
67802;PMS5003;72185;51.378;-1.342;2023-12-20T03:28:05;1;1;
67802;PMS5003;72185;51.378;-1.342;2023-12-20T03:30:31;2;2;
67802;PMS5003;72185;51.378;-1.342;2023-12-20T03:32:56;1;1;
67802;PMS5003;72185;51.378;-1.342;2023-12-20T03:35:22;2;1;
67802;PMS5003;72185;51.378;-1.342;2023-12-20T03:37:47;1;1;
67802;PMS5003;72185;51.378;-1.342;2023-12-20T03:40:13;2;1;
67802;PMS5003;72185;51.378;-1.342;2023-12-20T03:42:39;1;1;
67802;PMS5003;72185;51.378;-1.342;2023-12-20T03:45:05;1;1;
67802;PMS5003;72185;51.378;-1.342;2023-12-20T03:47:30;1;1;
67802;PMS5003;72185;51.378;-1.342;2023-12-20T03:49:56;2;2;
67802;PMS5003;72185;51.378;-1.342;2023-12-20T03:52:21;3;2;
67802;PMS5003;72185;51.378;-1.342;2023-12-20T03:54:47;1;1;
67802;PMS5003;72185;51.378;-1.342;2023-12-20T03:57:12;0;0;
67802;PMS5003;72185;51.378;-1.342;2023-12-20T03:59:38;1;1;
67802;PMS5003;72185;51.378;-1.342;2023-12-20T04:02:04;2;1;
67802;PMS5003;72185;51.378;-1.342;2023-12-20T04:04:29;1;1;
67802;PMS5003;72185;51.378;-1.342;2023-12-20T04:06:55;2;1;
67802;PMS5003;72185;51.378;-1.342;2023-12-20T04:09:20;0;0;
67802;PMS5003;72185;51.378;-1.342;2023-12-20T04:11:46;1;1;
67802;PMS5003;72185;51.378;-1.342;2023-12-20T04:14:12;1;1;
67802;PMS5003;72185;51.378;-1.342;2023-12-20T04:16:37;2;2;
67802;PMS5003;72185;51.378;-1.342;2023-12-20T04:19:03;1;1;
67802;PMS5003;72185;51.378;-1.342;2023-12-20T04:21:28;2;1;
67802;PMS5003;72185;51.378;-1.342;2023-12-20T04:23:54;1;1;
67802;PMS5003;72185;51.378;-1.342;2023-12-20T04:26:20;1;0;
67802;PMS5003;72185;51.378;-1.342;2023-12-20T04:28:45;2;1;
67802;PMS5003;72185;51.378;-1.342;2023-12-20T04:31:11;0;0;
67802;PMS5003;72185;51.378;-1.342;2023-12-20T04:33:36;1;1;
67802;PMS5003;72185;51.378;-1.342;2023-12-20T04:36:02;1;1;
67802;PMS5003;72185;51.378;-1.342;2023-12-20T04:38:28;1;1;
67802;PMS5003;72185;51.378;-1.342;2023-12-20T04:40:53;1;1;
67802;PMS5003;72185;51.378;-1.342;2023-12-20T04:43:19;2;2;
67802;PMS5003;72185;51.378;-1.342;2023-12-20T04:45:45;1;1;
67802;PMS5003;72185;51.378;-1.342;2023-12-20T04:48:11;0;0;
67802;PMS5003;72185;51.378;-1.342;2023-12-20T04:50:36;2;1;
67802;PMS5003;72185;51.378;-1.342;2023-12-20T04:53:01;1;0;
67802;PMS5003;72185;51.378;-1.342;2023-12-20T04:55:27;0;0;
67802;PMS5003;72185;51.378;-1.342;2023-12-20T04:57:53;1;1;
67802;PMS5003;72185;51.378;-1.342;2023-12-20T05:00:18;1;1;
67802;PMS5003;72185;51.378;-1.342;2023-12-20T05:02:44;2;1;
67802;PMS5003;72185;51.378;-1.342;2023-12-20T05:05:09;1;0;
67802;PMS5003;72185;51.378;-1.342;2023-12-20T05:07:35;1;1;
67802;PMS5003;72185;51.378;-1.342;2023-12-20T05:10:01;1;1;
67802;PMS5003;72185;51.378;-1.342;2023-12-20T05:12:26;1;1;
67802;PMS5003;72185;51.378;-1.342;2023-12-20T05:14:52;1;1;
67802;PMS5003;72185;51.378;-1.342;2023-12-20T05:17:17;0;0;
67802;PMS5003;72185;51.378;-1.342;2023-12-20T05:19:43;1;1;
67802;PMS5003;72185;51.378;-1.342;2023-12-20T05:22:09;0;0;
67802;PMS5003;72185;51.378;-1.342;2023-12-20T05:24:34;0;0;
67802;PMS5003;72185;51.378;-1.342;2023-12-20T05:27:00;2;2;
67802;PMS5003;72185;51.378;-1.342;2023-12-20T05:29:25;1;1;
67802;PMS5003;72185;51.378;-1.342;2023-12-20T05:31:51;2;1;
67802;PMS5003;72185;51.378;-1.342;2023-12-20T05:34:17;0;0;
67802;PMS5003;72185;51.378;-1.342;2023-12-20T05:36:42;3;1;
67802;PMS5003;72185;51.378;-1.342;2023-12-20T05:39:08;1;1;
67802;PMS5003;72185;51.378;-1.342;2023-12-20T05:41:34;2;2;
67802;PMS5003;72185;51.378;-1.342;2023-12-20T05:43:59;1;1;
67802;PMS5003;72185;51.378;-1.342;2023-12-20T05:46:25;1;1;
67802;PMS5003;72185;51.378;-1.342;2023-12-20T05:48:50;1;1;
67802;PMS5003;72185;51.378;-1.342;2023-12-20T05:51:16;1;1;
67802;PMS5003;72185;51.378;-1.342;2023-12-20T05:53:42;0;0;
67802;PMS5003;72185;51.378;-1.342;2023-12-20T05:56:07;0;0;
67802;PMS5003;72185;51.378;-1.342;2023-12-20T05:58:33;1;0;
67802;PMS5003;72185;51.378;-1.342;2023-12-20T06:00:58;2;1;
67802;PMS5003;72185;51.378;-1.342;2023-12-20T06:03:24;1;1;
67802;PMS5003;72185;51.378;-1.342;2023-12-20T06:05:50;3;2;
67802;PMS5003;72185;51.378;-1.342;2023-12-20T06:08:15;2;1;
67802;PMS5003;72185;51.378;-1.342;2023-12-20T06:10:41;1;1;
67802;PMS5003;72185;51.378;-1.342;2023-12-20T06:13:07;1;1;
67802;PMS5003;72185;51.378;-1.342;2023-12-20T06:15:32;2;2;
67802;PMS5003;72185;51.378;-1.342;2023-12-20T06:17:58;2;1;
67802;PMS5003;72185;51.378;-1.342;2023-12-20T06:20:23;1;1;
67802;PMS5003;72185;51.378;-1.342;2023-12-20T06:22:49;0;0;
67802;PMS5003;72185;51.378;-1.342;2023-12-20T06:25:15;1;1;
67802;PMS5003;72185;51.378;-1.342;2023-12-20T06:27:40;0;0;
67802;PMS5003;72185;51.378;-1.342;2023-12-20T06:30:06;1;1;
67802;PMS5003;72185;51.378;-1.342;2023-12-20T06:32:31;2;1;
67802;PMS5003;72185;51.378;-1.342;2023-12-20T06:34:57;0;0;
67802;PMS5003;72185;51.378;-1.342;2023-12-20T06:37:22;1;1;
67802;PMS5003;72185;51.378;-1.342;2023-12-20T06:39:48;2;2;
67802;PMS5003;72185;51.378;-1.342;2023-12-20T06:42:14;1;1;
67802;PMS5003;72185;51.378;-1.342;2023-12-20T06:44:39;2;1;
67802;PMS5003;72185;51.378;-1.342;2023-12-20T06:47:05;0;0;
67802;PMS5003;72185;51.378;-1.342;2023-12-20T06:49:30;1;1;
67802;PMS5003;72185;51.378;-1.342;2023-12-20T06:51:56;1;1;
67802;PMS5003;72185;51.378;-1.342;2023-12-20T06:54:22;1;1;
67802;PMS5003;72185;51.378;-1.342;2023-12-20T06:56:47;1;1;
67802;PMS5003;72185;51.378;-1.342;2023-12-20T06:59:13;0;0;
67802;PMS5003;72185;51.378;-1.342;2023-12-20T07:01:38;0;0;
67802;PMS5003;72185;51.378;-1.342;2023-12-20T07:04:04;0;0;
67802;PMS5003;72185;51.378;-1.342;2023-12-20T07:06:30;1;1;
67802;PMS5003;72185;51.378;-1.342;2023-12-20T07:08:55;1;1;
67802;PMS5003;72185;51.378;-1.342;2023-12-20T07:11:21;1;1;
67802;PMS5003;72185;51.378;-1.342;2023-12-20T07:13:46;1;1;
67802;PMS5003;72185;51.378;-1.342;2023-12-20T07:16:12;1;1;
67802;PMS5003;72185;51.378;-1.342;2023-12-20T07:18:38;5;4;
67802;PMS5003;72185;51.378;-1.342;2023-12-20T07:21:03;0;0;
67802;PMS5003;72185;51.378;-1.342;2023-12-20T07:23:29;1;1;
67802;PMS5003;72185;51.378;-1.342;2023-12-20T07:25:54;1;1;
67802;PMS5003;72185;51.378;-1.342;2023-12-20T07:28:20;1;1;
67802;PMS5003;72185;51.378;-1.342;2023-12-20T07:30:46;1;1;
67802;PMS5003;72185;51.378;-1.342;2023-12-20T07:33:11;0;0;
67802;PMS5003;72185;51.378;-1.342;2023-12-20T07:35:37;1;1;
67802;PMS5003;72185;51.378;-1.342;2023-12-20T07:38:02;0;0;
67802;PMS5003;72185;51.378;-1.342;2023-12-20T07:40:28;2;1;
67802;PMS5003;72185;51.378;-1.342;2023-12-20T07:42:54;1;1;
67802;PMS5003;72185;51.378;-1.342;2023-12-20T07:45:19;1;1;
67802;PMS5003;72185;51.378;-1.342;2023-12-20T07:47:45;1;1;
67802;PMS5003;72185;51.378;-1.342;2023-12-20T07:50:10;1;1;
67802;PMS5003;72185;51.378;-1.342;2023-12-20T07:52:36;0;0;
67802;PMS5003;72185;51.378;-1.342;2023-12-20T07:55:02;1;1;
67802;PMS5003;72185;51.378;-1.342;2023-12-20T07:57:28;1;1;
67802;PMS5003;72185;51.378;-1.342;2023-12-20T07:59:53;0;0;
67802;PMS5003;72185;51.378;-1.342;2023-12-20T08:02:18;0;0;
67802;PMS5003;72185;51.378;-1.342;2023-12-20T08:04:44;0;0;
67802;PMS5003;72185;51.378;-1.342;2023-12-20T08:07:09;1;1;
67802;PMS5003;72185;51.378;-1.342;2023-12-20T08:09:35;2;1;
67802;PMS5003;72185;51.378;-1.342;2023-12-20T08:12:01;1;1;
67802;PMS5003;72185;51.378;-1.342;2023-12-20T08:14:26;1;1;
67802;PMS5003;72185;51.378;-1.342;2023-12-20T08:16:52;1;1;
67802;PMS5003;72185;51.378;-1.342;2023-12-20T08:19:17;1;1;
67802;PMS5003;72185;51.378;-1.342;2023-12-20T08:21:43;1;1;
67802;PMS5003;72185;51.378;-1.342;2023-12-20T08:24:09;1;1;
67802;PMS5003;72185;51.378;-1.342;2023-12-20T08:26:34;1;1;
67802;PMS5003;72185;51.378;-1.342;2023-12-20T08:29:00;0;0;
67802;PMS5003;72185;51.378;-1.342;2023-12-20T08:31:26;1;1;
67802;PMS5003;72185;51.378;-1.342;2023-12-20T08:33:51;0;0;
67802;PMS5003;72185;51.378;-1.342;2023-12-20T08:36:17;2;2;
67802;PMS5003;72185;51.378;-1.342;2023-12-20T08:38:42;1;1;
67802;PMS5003;72185;51.378;-1.342;2023-12-20T08:41:08;2;2;
67802;PMS5003;72185;51.378;-1.342;2023-12-20T08:43:34;1;1;
67802;PMS5003;72185;51.378;-1.342;2023-12-20T08:45:59;1;1;
67802;PMS5003;72185;51.378;-1.342;2023-12-20T08:48:26;1;0;
67802;PMS5003;72185;51.378;-1.342;2023-12-20T08:50:50;1;1;
67802;PMS5003;72185;51.378;-1.342;2023-12-20T08:53:16;1;1;
67802;PMS5003;72185;51.378;-1.342;2023-12-20T08:55:41;0;0;
67802;PMS5003;72185;51.378;-1.342;2023-12-20T08:58:07;1;1;
67802;PMS5003;72185;51.378;-1.342;2023-12-20T09:00:33;0;0;
67802;PMS5003;72185;51.378;-1.342;2023-12-20T09:02:58;1;0;
67802;PMS5003;72185;51.378;-1.342;2023-12-20T09:05:24;1;0;
67802;PMS5003;72185;51.378;-1.342;2023-12-20T09:07:49;1;1;
67802;PMS5003;72185;51.378;-1.342;2023-12-20T09:10:15;1;1;
67802;PMS5003;72185;51.378;-1.342;2023-12-20T09:12:41;1;1;
67802;PMS5003;72185;51.378;-1.342;2023-12-20T09:15:06;1;1;
67802;PMS5003;72185;51.378;-1.342;2023-12-20T09:17:32;0;0;
67802;PMS5003;72185;51.378;-1.342;2023-12-20T09:19:58;0;0;
67802;PMS5003;72185;51.378;-1.342;2023-12-20T09:22:23;1;0;
67802;PMS5003;72185;51.378;-1.342;2023-12-20T09:24:49;1;1;
67802;PMS5003;72185;51.378;-1.342;2023-12-20T09:27:14;1;1;
67802;PMS5003;72185;51.378;-1.342;2023-12-20T09:29:40;2;2;
67802;PMS5003;72185;51.378;-1.342;2023-12-20T09:32:06;1;1;
67802;PMS5003;72185;51.378;-1.342;2023-12-20T09:34:31;1;1;
67802;PMS5003;72185;51.378;-1.342;2023-12-20T09:36:57;1;1;
67802;PMS5003;72185;51.378;-1.342;2023-12-20T09:39:22;1;1;
67802;PMS5003;72185;51.378;-1.342;2023-12-20T09:41:49;1;0;
67802;PMS5003;72185;51.378;-1.342;2023-12-20T09:44:14;0;0;
67802;PMS5003;72185;51.378;-1.342;2023-12-20T09:46:39;1;1;
67802;PMS5003;72185;51.378;-1.342;2023-12-20T09:49:05;1;1;
67802;PMS5003;72185;51.378;-1.342;2023-12-20T09:51:30;1;1;
67802;PMS5003;72185;51.378;-1.342;2023-12-20T09:53:56;1;1;
67802;PMS5003;72185;51.378;-1.342;2023-12-20T09:56:22;1;1;
67802;PMS5003;72185;51.378;-1.342;2023-12-20T09:58:47;0;0;
67802;PMS5003;72185;51.378;-1.342;2023-12-20T10:01:13;0;0;
67802;PMS5003;72185;51.378;-1.342;2023-12-20T10:03:39;0;0;
67802;PMS5003;72185;51.378;-1.342;2023-12-20T10:06:04;0;0;
67802;PMS5003;72185;51.378;-1.342;2023-12-20T10:08:30;1;1;
67802;PMS5003;72185;51.378;-1.342;2023-12-20T10:10:55;1;1;
67802;PMS5003;72185;51.378;-1.342;2023-12-20T10:13:21;1;0;
67802;PMS5003;72185;51.378;-1.342;2023-12-20T10:15:46;0;0;
67802;PMS5003;72185;51.378;-1.342;2023-12-20T10:18:12;0;0;
67802;PMS5003;72185;51.378;-1.342;2023-12-20T10:20:38;1;1;
67802;PMS5003;72185;51.378;-1.342;2023-12-20T10:23:03;0;0;
67802;PMS5003;72185;51.378;-1.342;2023-12-20T10:25:29;1;1;
67802;PMS5003;72185;51.378;-1.342;2023-12-20T10:30:20;0;0;
67802;PMS5003;72185;51.378;-1.342;2023-12-20T10:32:45;0;0;
67802;PMS5003;72185;51.378;-1.342;2023-12-20T10:35:11;0;0;
67802;PMS5003;72185;51.378;-1.342;2023-12-20T10:37:37;0;0;
67802;PMS5003;72185;51.378;-1.342;2023-12-20T10:40:03;1;0;
67802;PMS5003;72185;51.378;-1.342;2023-12-20T10:42:28;1;1;
67802;PMS5003;72185;51.378;-1.342;2023-12-20T10:44:53;2;1;
67802;PMS5003;72185;51.378;-1.342;2023-12-20T10:47:19;1;0;
67802;PMS5003;72185;51.378;-1.342;2023-12-20T10:49:45;1;1;
67802;PMS5003;72185;51.378;-1.342;2023-12-20T10:52:10;0;0;
67802;PMS5003;72185;51.378;-1.342;2023-12-20T10:54:36;0;0;
67802;PMS5003;72185;51.378;-1.342;2023-12-20T10:57:01;1;1;
67802;PMS5003;72185;51.378;-1.342;2023-12-20T10:59:27;1;1;
67802;PMS5003;72185;51.378;-1.342;2023-12-20T11:01:52;1;1;
67802;PMS5003;72185;51.378;-1.342;2023-12-20T11:04:19;1;1;
67802;PMS5003;72185;51.378;-1.342;2023-12-20T11:06:45;1;1;
67802;PMS5003;72185;51.378;-1.342;2023-12-20T11:09:12;2;1;
67802;PMS5003;72185;51.378;-1.342;2023-12-20T11:11:36;1;0;
67802;PMS5003;72185;51.378;-1.342;2023-12-20T11:14:02;1;1;
67802;PMS5003;72185;51.378;-1.342;2023-12-20T11:16:26;0;0;
67802;PMS5003;72185;51.378;-1.342;2023-12-20T11:18:51;0;0;
67802;PMS5003;72185;51.378;-1.342;2023-12-20T11:21:17;0;0;
67802;PMS5003;72185;51.378;-1.342;2023-12-20T11:23:43;1;1;
67802;PMS5003;72185;51.378;-1.342;2023-12-20T11:26:08;0;0;
67802;PMS5003;72185;51.378;-1.342;2023-12-20T11:28:34;1;1;
67802;PMS5003;72185;51.378;-1.342;2023-12-20T11:31:00;1;1;
67802;PMS5003;72185;51.378;-1.342;2023-12-20T11:33:25;1;1;
67802;PMS5003;72185;51.378;-1.342;2023-12-20T11:35:51;2;1;
67802;PMS5003;72185;51.378;-1.342;2023-12-20T11:38:17;1;1;
67802;PMS5003;72185;51.378;-1.342;2023-12-20T11:40:42;1;1;
67802;PMS5003;72185;51.378;-1.342;2023-12-20T11:43:07;0;0;
67802;PMS5003;72185;51.378;-1.342;2023-12-20T11:45:33;1;1;
67802;PMS5003;72185;51.378;-1.342;2023-12-20T11:47:58;1;1;
67802;PMS5003;72185;51.378;-1.342;2023-12-20T11:50:24;1;1;
67802;PMS5003;72185;51.378;-1.342;2023-12-20T11:52:50;1;1;
67802;PMS5003;72185;51.378;-1.342;2023-12-20T11:55:15;2;1;
67802;PMS5003;72185;51.378;-1.342;2023-12-20T11:57:41;1;1;
67802;PMS5003;72185;51.378;-1.342;2023-12-20T12:00:06;1;1;
67802;PMS5003;72185;51.378;-1.342;2023-12-20T12:02:32;1;1;
67802;PMS5003;72185;51.378;-1.342;2023-12-20T12:04:57;1;1;
67802;PMS5003;72185;51.378;-1.342;2023-12-20T12:07:23;1;1;
67802;PMS5003;72185;51.378;-1.342;2023-12-20T12:09:49;1;1;
67802;PMS5003;72185;51.378;-1.342;2023-12-20T12:12:14;1;1;
67802;PMS5003;72185;51.378;-1.342;2023-12-20T12:14:40;0;0;
67802;PMS5003;72185;51.378;-1.342;2023-12-20T12:17:09;1;1;
67802;PMS5003;72185;51.378;-1.342;2023-12-20T12:19:31;1;0;
67802;PMS5003;72185;51.378;-1.342;2023-12-20T12:24:22;1;1;
67802;PMS5003;72185;51.378;-1.342;2023-12-20T12:26:49;1;1;
67802;PMS5003;72185;51.378;-1.342;2023-12-20T12:29:13;1;1;
67802;PMS5003;72185;51.378;-1.342;2023-12-20T12:31:39;1;0;
67802;PMS5003;72185;51.378;-1.342;2023-12-20T12:34:04;1;1;
67802;PMS5003;72185;51.378;-1.342;2023-12-20T12:36:30;0;0;
67802;PMS5003;72185;51.378;-1.342;2023-12-20T12:38:56;2;2;
67802;PMS5003;72185;51.378;-1.342;2023-12-20T12:41:21;0;0;
67802;PMS5003;72185;51.378;-1.342;2023-12-20T12:43:47;1;1;
67802;PMS5003;72185;51.378;-1.342;2023-12-20T12:46:12;1;1;
67802;PMS5003;72185;51.378;-1.342;2023-12-20T12:48:38;3;1;
67802;PMS5003;72185;51.378;-1.342;2023-12-20T12:51:04;0;0;
67802;PMS5003;72185;51.378;-1.342;2023-12-20T12:53:29;0;0;
67802;PMS5003;72185;51.378;-1.342;2023-12-20T12:55:55;1;1;
67802;PMS5003;72185;51.378;-1.342;2023-12-20T12:58:20;1;1;
67802;PMS5003;72185;51.378;-1.342;2023-12-20T13:00:46;3;2;
67802;PMS5003;72185;51.378;-1.342;2023-12-20T13:03:11;0;0;
67802;PMS5003;72185;51.378;-1.342;2023-12-20T13:05:37;1;1;
67802;PMS5003;72185;51.378;-1.342;2023-12-20T13:08:03;0;0;
67802;PMS5003;72185;51.378;-1.342;2023-12-20T13:10:28;1;1;
67802;PMS5003;72185;51.378;-1.342;2023-12-20T13:12:53;1;1;
67802;PMS5003;72185;51.378;-1.342;2023-12-20T13:15:19;1;1;
67802;PMS5003;72185;51.378;-1.342;2023-12-20T13:17:45;1;1;
67802;PMS5003;72185;51.378;-1.342;2023-12-20T13:20:10;2;2;
67802;PMS5003;72185;51.378;-1.342;2023-12-20T13:22:36;1;1;
67802;PMS5003;72185;51.378;-1.342;2023-12-20T13:25:01;1;1;
67802;PMS5003;72185;51.378;-1.342;2023-12-20T13:27:27;2;1;
67802;PMS5003;72185;51.378;-1.342;2023-12-20T13:29:53;1;1;
67802;PMS5003;72185;51.378;-1.342;2023-12-20T13:32:18;1;1;
67802;PMS5003;72185;51.378;-1.342;2023-12-20T13:34:44;2;1;
67802;PMS5003;72185;51.378;-1.342;2023-12-20T13:37:09;2;2;
67802;PMS5003;72185;51.378;-1.342;2023-12-20T13:39:35;1;1;
67802;PMS5003;72185;51.378;-1.342;2023-12-20T13:42:00;1;1;
67802;PMS5003;72185;51.378;-1.342;2023-12-20T13:44:26;2;1;
67802;PMS5003;72185;51.378;-1.342;2023-12-20T13:46:52;1;1;
67802;PMS5003;72185;51.378;-1.342;2023-12-20T13:49:17;0;0;
67802;PMS5003;72185;51.378;-1.342;2023-12-20T13:51:43;0;0;
67802;PMS5003;72185;51.378;-1.342;2023-12-20T13:54:08;1;1;
67802;PMS5003;72185;51.378;-1.342;2023-12-20T13:56:34;1;1;
67802;PMS5003;72185;51.378;-1.342;2023-12-20T13:59:00;1;1;
67802;PMS5003;72185;51.378;-1.342;2023-12-20T14:01:25;0;0;
67802;PMS5003;72185;51.378;-1.342;2023-12-20T14:03:51;0;0;
67802;PMS5003;72185;51.378;-1.342;2023-12-20T14:06:16;0;0;
67802;PMS5003;72185;51.378;-1.342;2023-12-20T14:08:42;1;1;
67802;PMS5003;72185;51.378;-1.342;2023-12-20T14:11:07;1;1;
67802;PMS5003;72185;51.378;-1.342;2023-12-20T14:13:33;1;1;
67802;PMS5003;72185;51.378;-1.342;2023-12-20T14:15:59;1;1;
67802;PMS5003;72185;51.378;-1.342;2023-12-20T14:18:24;0;0;
67802;PMS5003;72185;51.378;-1.342;2023-12-20T14:20:50;2;2;
67802;PMS5003;72185;51.378;-1.342;2023-12-20T14:23:16;1;1;
67802;PMS5003;72185;51.378;-1.342;2023-12-20T14:25:41;1;1;
67802;PMS5003;72185;51.378;-1.342;2023-12-20T14:28:07;1;1;
67802;PMS5003;72185;51.378;-1.342;2023-12-20T14:30:32;1;1;
67802;PMS5003;72185;51.378;-1.342;2023-12-20T14:32:58;2;2;
67802;PMS5003;72185;51.378;-1.342;2023-12-20T14:35:23;1;1;
67802;PMS5003;72185;51.378;-1.342;2023-12-20T14:37:49;2;2;
67802;PMS5003;72185;51.378;-1.342;2023-12-20T14:40:15;2;1;
67802;PMS5003;72185;51.378;-1.342;2023-12-20T14:42:40;0;0;
67802;PMS5003;72185;51.378;-1.342;2023-12-20T14:45:06;2;1;
67802;PMS5003;72185;51.378;-1.342;2023-12-20T14:47:31;1;1;
67802;PMS5003;72185;51.378;-1.342;2023-12-20T14:49:57;3;3;
67802;PMS5003;72185;51.378;-1.342;2023-12-20T14:52:23;1;1;
67802;PMS5003;72185;51.378;-1.342;2023-12-20T14:54:48;2;2;
67802;PMS5003;72185;51.378;-1.342;2023-12-20T14:57:14;1;1;
67802;PMS5003;72185;51.378;-1.342;2023-12-20T14:59:39;1;1;
67802;PMS5003;72185;51.378;-1.342;2023-12-20T15:02:05;1;1;
67802;PMS5003;72185;51.378;-1.342;2023-12-20T15:04:30;2;2;
67802;PMS5003;72185;51.378;-1.342;2023-12-20T15:06:56;3;2;
67802;PMS5003;72185;51.378;-1.342;2023-12-20T15:09:22;1;0;
67802;PMS5003;72185;51.378;-1.342;2023-12-20T15:11:47;2;2;
67802;PMS5003;72185;51.378;-1.342;2023-12-20T15:14:13;1;1;
67802;PMS5003;72185;51.378;-1.342;2023-12-20T15:16:38;3;2;
67802;PMS5003;72185;51.378;-1.342;2023-12-20T15:19:05;1;1;
67802;PMS5003;72185;51.378;-1.342;2023-12-20T15:21:30;1;1;
67802;PMS5003;72185;51.378;-1.342;2023-12-20T15:23:55;1;1;
67802;PMS5003;72185;51.378;-1.342;2023-12-20T15:26:21;1;1;
67802;PMS5003;72185;51.378;-1.342;2023-12-20T15:28:46;1;1;
67802;PMS5003;72185;51.378;-1.342;2023-12-20T15:31:12;1;1;
67802;PMS5003;72185;51.378;-1.342;2023-12-20T15:33:38;1;1;
67802;PMS5003;72185;51.378;-1.342;2023-12-20T15:36:03;2;2;
67802;PMS5003;72185;51.378;-1.342;2023-12-20T15:38:29;1;1;
67802;PMS5003;72185;51.378;-1.342;2023-12-20T15:40:54;1;1;
67802;PMS5003;72185;51.378;-1.342;2023-12-20T15:43:20;2;1;
67802;PMS5003;72185;51.378;-1.342;2023-12-20T15:45:45;3;2;
67802;PMS5003;72185;51.378;-1.342;2023-12-20T15:48:11;4;4;
67802;PMS5003;72185;51.378;-1.342;2023-12-20T15:50:36;4;3;
67802;PMS5003;72185;51.378;-1.342;2023-12-20T15:53:02;5;5;
67802;PMS5003;72185;51.378;-1.342;2023-12-20T15:55:28;8;6;
67802;PMS5003;72185;51.378;-1.342;2023-12-20T15:57:53;8;6;
67802;PMS5003;72185;51.378;-1.342;2023-12-20T16:00:19;4;4;
67802;PMS5003;72185;51.378;-1.342;2023-12-20T16:02:44;6;6;
67802;PMS5003;72185;51.378;-1.342;2023-12-20T16:05:10;3;3;
67802;PMS5003;72185;51.378;-1.342;2023-12-20T16:07:36;3;3;
67802;PMS5003;72185;51.378;-1.342;2023-12-20T16:10:01;5;4;
67802;PMS5003;72185;51.378;-1.342;2023-12-20T16:12:26;4;4;
67802;PMS5003;72185;51.378;-1.342;2023-12-20T16:14:52;4;3;
67802;PMS5003;72185;51.378;-1.342;2023-12-20T16:17:17;6;5;
67802;PMS5003;72185;51.378;-1.342;2023-12-20T16:19:43;5;5;
67802;PMS5003;72185;51.378;-1.342;2023-12-20T16:22:09;9;9;
67802;PMS5003;72185;51.378;-1.342;2023-12-20T16:24:34;9;7;
67802;PMS5003;72185;51.378;-1.342;2023-12-20T16:27:00;6;6;